sensor_id;sensor_type;location;lat;lon;timestamp;P1;durP1;ratioP1;P2;durP2;ratioP2
5507;SDS011;2776;51.046;6.772;2024-01-16T00:02:16;4.73;;;3.43;;
5507;SDS011;2776;51.046;6.772;2024-01-16T00:04:44;3.10;;;2.77;;
5507;SDS011;2776;51.046;6.772;2024-01-16T00:07:10;4.03;;;3.00;;
5507;SDS011;2776;51.046;6.772;2024-01-16T00:09:37;4.33;;;2.60;;
5507;SDS011;2776;51.046;6.772;2024-01-16T00:12:04;3.27;;;2.97;;
5507;SDS011;2776;51.046;6.772;2024-01-16T00:14:34;4.37;;;3.83;;
5507;SDS011;2776;51.046;6.772;2024-01-16T00:17:01;7.13;;;3.40;;
5507;SDS011;2776;51.046;6.772;2024-01-16T00:19:28;6.50;;;3.33;;
5507;SDS011;2776;51.046;6.772;2024-01-16T00:21:56;3.90;;;2.80;;
5507;SDS011;2776;51.046;6.772;2024-01-16T00:24:23;12.13;;;3.57;;
5507;SDS011;2776;51.046;6.772;2024-01-16T00:26:50;3.70;;;2.70;;
5507;SDS011;2776;51.046;6.772;2024-01-16T00:29:16;5.90;;;3.53;;
5507;SDS011;2776;51.046;6.772;2024-01-16T00:31:43;3.20;;;2.90;;
5507;SDS011;2776;51.046;6.772;2024-01-16T00:34:10;3.70;;;3.10;;
5507;SDS011;2776;51.046;6.772;2024-01-16T00:36:36;5.07;;;3.17;;
5507;SDS011;2776;51.046;6.772;2024-01-16T00:39:04;3.33;;;2.73;;
5507;SDS011;2776;51.046;6.772;2024-01-16T00:41:32;7.83;;;3.10;;
5507;SDS011;2776;51.046;6.772;2024-01-16T00:43:58;6.17;;;4.17;;
5507;SDS011;2776;51.046;6.772;2024-01-16T00:46:25;9.40;;;3.73;;
5507;SDS011;2776;51.046;6.772;2024-01-16T00:48:52;4.20;;;3.60;;
5507;SDS011;2776;51.046;6.772;2024-01-16T00:51:19;4.83;;;3.67;;
5507;SDS011;2776;51.046;6.772;2024-01-16T00:53:45;8.50;;;4.13;;
5507;SDS011;2776;51.046;6.772;2024-01-16T00:56:14;5.73;;;3.87;;
5507;SDS011;2776;51.046;6.772;2024-01-16T00:58:40;4.90;;;3.90;;
5507;SDS011;2776;51.046;6.772;2024-01-16T01:01:07;6.60;;;3.30;;
5507;SDS011;2776;51.046;6.772;2024-01-16T01:03:34;9.20;;;3.87;;
5507;SDS011;2776;51.046;6.772;2024-01-16T01:06:00;4.57;;;3.37;;
5507;SDS011;2776;51.046;6.772;2024-01-16T01:08:27;9.80;;;3.80;;
5507;SDS011;2776;51.046;6.772;2024-01-16T01:10:54;6.03;;;3.40;;
5507;SDS011;2776;51.046;6.772;2024-01-16T01:13:22;2.50;;;2.40;;
5507;SDS011;2776;51.046;6.772;2024-01-16T01:15:50;6.30;;;3.50;;
5507;SDS011;2776;51.046;6.772;2024-01-16T01:18:16;4.30;;;3.40;;
5507;SDS011;2776;51.046;6.772;2024-01-16T01:20:43;3.43;;;2.80;;
5507;SDS011;2776;51.046;6.772;2024-01-16T01:23:10;5.27;;;2.73;;
5507;SDS011;2776;51.046;6.772;2024-01-16T01:25:37;4.60;;;2.87;;
5507;SDS011;2776;51.046;6.772;2024-01-16T01:28:04;2.40;;;2.20;;
5507;SDS011;2776;51.046;6.772;2024-01-16T01:30:32;2.10;;;1.80;;
5507;SDS011;2776;51.046;6.772;2024-01-16T01:32:59;2.63;;;2.23;;
5507;SDS011;2776;51.046;6.772;2024-01-16T01:35:25;16.77;;;2.97;;
5507;SDS011;2776;51.046;6.772;2024-01-16T01:37:52;5.90;;;3.33;;
5507;SDS011;2776;51.046;6.772;2024-01-16T01:40:19;2.93;;;2.67;;
5507;SDS011;2776;51.046;6.772;2024-01-16T01:42:46;6.07;;;3.10;;
5507;SDS011;2776;51.046;6.772;2024-01-16T01:45:13;4.80;;;3.30;;
5507;SDS011;2776;51.046;6.772;2024-01-16T01:47:41;2.57;;;2.37;;
5507;SDS011;2776;51.046;6.772;2024-01-16T01:50:08;5.40;;;3.33;;
5507;SDS011;2776;51.046;6.772;2024-01-16T01:52:36;3.03;;;2.60;;
5507;SDS011;2776;51.046;6.772;2024-01-16T01:55:06;5.00;;;2.40;;
5507;SDS011;2776;51.046;6.772;2024-01-16T01:57:36;3.37;;;2.40;;
5507;SDS011;2776;51.046;6.772;2024-01-16T02:00:03;3.70;;;2.63;;
5507;SDS011;2776;51.046;6.772;2024-01-16T02:02:31;4.63;;;3.17;;
5507;SDS011;2776;51.046;6.772;2024-01-16T02:05:00;3.17;;;2.73;;
5507;SDS011;2776;51.046;6.772;2024-01-16T02:07:28;4.27;;;3.17;;
5507;SDS011;2776;51.046;6.772;2024-01-16T02:09:57;11.27;;;4.77;;
5507;SDS011;2776;51.046;6.772;2024-01-16T02:12:25;5.40;;;2.70;;
5507;SDS011;2776;51.046;6.772;2024-01-16T02:14:52;6.93;;;3.07;;
5507;SDS011;2776;51.046;6.772;2024-01-16T02:17:19;4.00;;;3.17;;
5507;SDS011;2776;51.046;6.772;2024-01-16T02:19:45;9.63;;;3.40;;
5507;SDS011;2776;51.046;6.772;2024-01-16T02:22:14;4.13;;;3.17;;
5507;SDS011;2776;51.046;6.772;2024-01-16T02:24:47;11.00;;;2.80;;
5507;SDS011;2776;51.046;6.772;2024-01-16T02:27:14;5.07;;;2.53;;
5507;SDS011;2776;51.046;6.772;2024-01-16T02:29:41;12.83;;;3.10;;
5507;SDS011;2776;51.046;6.772;2024-01-16T02:32:08;2.40;;;2.20;;
5507;SDS011;2776;51.046;6.772;2024-01-16T02:34:36;3.00;;;2.60;;
5507;SDS011;2776;51.046;6.772;2024-01-16T02:37:03;2.50;;;1.73;;
5507;SDS011;2776;51.046;6.772;2024-01-16T02:39:30;7.67;;;2.90;;
5507;SDS011;2776;51.046;6.772;2024-01-16T02:41:58;4.83;;;2.20;;
5507;SDS011;2776;51.046;6.772;2024-01-16T02:44:24;11.93;;;3.10;;
5507;SDS011;2776;51.046;6.772;2024-01-16T02:46:51;4.17;;;2.73;;
5507;SDS011;2776;51.046;6.772;2024-01-16T02:49:18;5.17;;;2.73;;
5507;SDS011;2776;51.046;6.772;2024-01-16T02:51:45;4.70;;;1.90;;
5507;SDS011;2776;51.046;6.772;2024-01-16T02:54:11;3.27;;;2.33;;
5507;SDS011;2776;51.046;6.772;2024-01-16T02:56:39;2.67;;;2.17;;
5507;SDS011;2776;51.046;6.772;2024-01-16T02:59:07;7.03;;;3.00;;
5507;SDS011;2776;51.046;6.772;2024-01-16T03:01:34;5.77;;;2.20;;
5507;SDS011;2776;51.046;6.772;2024-01-16T03:04:01;7.67;;;3.47;;
5507;SDS011;2776;51.046;6.772;2024-01-16T03:06:28;5.00;;;3.00;;
5507;SDS011;2776;51.046;6.772;2024-01-16T03:08:54;2.27;;;1.93;;
5507;SDS011;2776;51.046;6.772;2024-01-16T03:11:21;7.83;;;2.80;;
5507;SDS011;2776;51.046;6.772;2024-01-16T03:13:48;4.03;;;3.10;;
5507;SDS011;2776;51.046;6.772;2024-01-16T03:16:18;8.23;;;2.73;;
5507;SDS011;2776;51.046;6.772;2024-01-16T03:18:45;2.90;;;2.60;;
5507;SDS011;2776;51.046;6.772;2024-01-16T03:21:13;2.23;;;2.03;;
5507;SDS011;2776;51.046;6.772;2024-01-16T03:23:40;5.73;;;2.70;;
5507;SDS011;2776;51.046;6.772;2024-01-16T03:26:06;3.07;;;2.20;;
5507;SDS011;2776;51.046;6.772;2024-01-16T03:28:37;3.23;;;2.40;;
5507;SDS011;2776;51.046;6.772;2024-01-16T03:31:04;2.53;;;2.17;;
5507;SDS011;2776;51.046;6.772;2024-01-16T03:33:32;5.07;;;2.27;;
5507;SDS011;2776;51.046;6.772;2024-01-16T03:36:00;3.07;;;1.83;;
5507;SDS011;2776;51.046;6.772;2024-01-16T03:38:27;6.77;;;2.77;;
5507;SDS011;2776;51.046;6.772;2024-01-16T03:40:55;3.97;;;3.57;;
5507;SDS011;2776;51.046;6.772;2024-01-16T03:43:21;3.63;;;2.67;;
5507;SDS011;2776;51.046;6.772;2024-01-16T03:45:48;6.30;;;2.47;;
5507;SDS011;2776;51.046;6.772;2024-01-16T03:48:15;3.63;;;1.70;;
5507;SDS011;2776;51.046;6.772;2024-01-16T03:50:43;3.63;;;2.47;;
5507;SDS011;2776;51.046;6.772;2024-01-16T03:53:10;2.63;;;2.43;;
5507;SDS011;2776;51.046;6.772;2024-01-16T03:55:37;6.40;;;2.60;;
5507;SDS011;2776;51.046;6.772;2024-01-16T03:58:04;2.83;;;2.53;;
5507;SDS011;2776;51.046;6.772;2024-01-16T04:00:31;8.50;;;3.03;;
5507;SDS011;2776;51.046;6.772;2024-01-16T04:02:58;6.17;;;2.30;;
5507;SDS011;2776;51.046;6.772;2024-01-16T04:05:25;3.03;;;2.13;;
5507;SDS011;2776;51.046;6.772;2024-01-16T04:07:53;7.87;;;3.83;;
5507;SDS011;2776;51.046;6.772;2024-01-16T04:10:20;3.17;;;2.77;;
5507;SDS011;2776;51.046;6.772;2024-01-16T04:12:47;2.77;;;2.57;;
5507;SDS011;2776;51.046;6.772;2024-01-16T04:15:14;3.77;;;2.97;;
5507;SDS011;2776;51.046;6.772;2024-01-16T04:17:41;5.83;;;2.37;;
5507;SDS011;2776;51.046;6.772;2024-01-16T04:20:08;4.80;;;2.97;;
5507;SDS011;2776;51.046;6.772;2024-01-16T04:22:35;5.77;;;2.53;;
5507;SDS011;2776;51.046;6.772;2024-01-16T04:25:04;4.13;;;2.43;;
5507;SDS011;2776;51.046;6.772;2024-01-16T04:27:31;2.30;;;1.63;;
5507;SDS011;2776;51.046;6.772;2024-01-16T04:29:57;3.10;;;2.30;;
5507;SDS011;2776;51.046;6.772;2024-01-16T04:32:24;8.50;;;3.00;;
5507;SDS011;2776;51.046;6.772;2024-01-16T04:34:51;5.73;;;1.93;;
5507;SDS011;2776;51.046;6.772;2024-01-16T04:37:18;4.13;;;2.63;;
5507;SDS011;2776;51.046;6.772;2024-01-16T04:39:44;2.23;;;1.63;;
5507;SDS011;2776;51.046;6.772;2024-01-16T04:42:12;9.17;;;2.23;;
5507;SDS011;2776;51.046;6.772;2024-01-16T04:44:39;4.70;;;2.93;;
5507;SDS011;2776;51.046;6.772;2024-01-16T04:47:06;5.30;;;2.93;;
5507;SDS011;2776;51.046;6.772;2024-01-16T04:49:32;3.37;;;2.30;;
5507;SDS011;2776;51.046;6.772;2024-01-16T04:51:59;4.57;;;1.40;;
5507;SDS011;2776;51.046;6.772;2024-01-16T04:54:26;2.77;;;2.13;;
5507;SDS011;2776;51.046;6.772;2024-01-16T04:56:52;16.00;;;2.67;;
5507;SDS011;2776;51.046;6.772;2024-01-16T04:59:20;9.10;;;2.40;;
5507;SDS011;2776;51.046;6.772;2024-01-16T05:01:47;7.40;;;2.27;;
5507;SDS011;2776;51.046;6.772;2024-01-16T05:04:14;11.77;;;2.73;;
5507;SDS011;2776;51.046;6.772;2024-01-16T05:06:40;2.63;;;1.90;;
5507;SDS011;2776;51.046;6.772;2024-01-16T05:09:08;6.70;;;1.93;;
5507;SDS011;2776;51.046;6.772;2024-01-16T05:11:35;2.87;;;2.17;;
5507;SDS011;2776;51.046;6.772;2024-01-16T05:14:02;1.23;;;1.13;;
5507;SDS011;2776;51.046;6.772;2024-01-16T05:16:30;2.97;;;1.97;;
5507;SDS011;2776;51.046;6.772;2024-01-16T05:18:57;2.50;;;2.30;;
5507;SDS011;2776;51.046;6.772;2024-01-16T05:21:23;2.23;;;2.00;;
5507;SDS011;2776;51.046;6.772;2024-01-16T05:23:50;4.40;;;1.80;;
5507;SDS011;2776;51.046;6.772;2024-01-16T05:26:17;3.57;;;2.07;;
5507;SDS011;2776;51.046;6.772;2024-01-16T05:28:43;2.10;;;1.10;;
5507;SDS011;2776;51.046;6.772;2024-01-16T05:31:10;1.77;;;1.27;;
5507;SDS011;2776;51.046;6.772;2024-01-16T05:33:38;3.70;;;2.47;;
5507;SDS011;2776;51.046;6.772;2024-01-16T05:36:05;7.70;;;2.00;;
5507;SDS011;2776;51.046;6.772;2024-01-16T05:38:32;1.83;;;1.73;;
5507;SDS011;2776;51.046;6.772;2024-01-16T05:41:00;6.33;;;2.13;;
5507;SDS011;2776;51.046;6.772;2024-01-16T05:43:28;2.67;;;1.73;;
5507;SDS011;2776;51.046;6.772;2024-01-16T05:45:55;2.70;;;1.33;;
5507;SDS011;2776;51.046;6.772;2024-01-16T05:48:22;2.50;;;1.90;;
5507;SDS011;2776;51.046;6.772;2024-01-16T05:50:50;3.03;;;1.53;;
5507;SDS011;2776;51.046;6.772;2024-01-16T05:53:17;6.03;;;3.20;;
5507;SDS011;2776;51.046;6.772;2024-01-16T05:55:43;2.73;;;2.50;;
5507;SDS011;2776;51.046;6.772;2024-01-16T05:58:10;1.30;;;1.10;;
5507;SDS011;2776;51.046;6.772;2024-01-16T06:00:37;7.27;;;1.50;;
5507;SDS011;2776;51.046;6.772;2024-01-16T06:03:04;2.40;;;2.20;;
5507;SDS011;2776;51.046;6.772;2024-01-16T06:05:31;4.83;;;2.20;;
5507;SDS011;2776;51.046;6.772;2024-01-16T06:07:59;4.47;;;1.73;;
5507;SDS011;2776;51.046;6.772;2024-01-16T06:10:27;6.53;;;1.40;;
5507;SDS011;2776;51.046;6.772;2024-01-16T06:12:54;4.07;;;1.50;;
5507;SDS011;2776;51.046;6.772;2024-01-16T06:15:21;3.23;;;1.40;;
5507;SDS011;2776;51.046;6.772;2024-01-16T06:17:48;3.73;;;1.33;;
5507;SDS011;2776;51.046;6.772;2024-01-16T06:20:15;3.67;;;1.77;;
5507;SDS011;2776;51.046;6.772;2024-01-16T06:22:41;9.43;;;1.10;;
5507;SDS011;2776;51.046;6.772;2024-01-16T06:25:09;2.37;;;1.47;;
5507;SDS011;2776;51.046;6.772;2024-01-16T06:27:36;1.73;;;1.60;;
5507;SDS011;2776;51.046;6.772;2024-01-16T06:30:03;2.40;;;1.80;;
5507;SDS011;2776;51.046;6.772;2024-01-16T06:32:30;5.27;;;1.47;;
5507;SDS011;2776;51.046;6.772;2024-01-16T06:34:56;4.73;;;1.43;;
5507;SDS011;2776;51.046;6.772;2024-01-16T06:37:23;3.13;;;1.27;;
5507;SDS011;2776;51.046;6.772;2024-01-16T06:39:50;2.70;;;2.53;;
5507;SDS011;2776;51.046;6.772;2024-01-16T06:42:18;2.17;;;1.10;;
5507;SDS011;2776;51.046;6.772;2024-01-16T06:44:45;5.00;;;1.07;;
5507;SDS011;2776;51.046;6.772;2024-01-16T06:47:12;2.47;;;0.90;;
5507;SDS011;2776;51.046;6.772;2024-01-16T06:49:39;2.67;;;1.27;;
5507;SDS011;2776;51.046;6.772;2024-01-16T06:52:06;0.80;;;0.80;;
5507;SDS011;2776;51.046;6.772;2024-01-16T06:54:34;1.67;;;1.33;;
5507;SDS011;2776;51.046;6.772;2024-01-16T06:57:00;3.03;;;1.60;;
5507;SDS011;2776;51.046;6.772;2024-01-16T06:59:29;3.20;;;1.17;;
5507;SDS011;2776;51.046;6.772;2024-01-16T07:01:55;3.23;;;1.53;;
5507;SDS011;2776;51.046;6.772;2024-01-16T07:04:22;5.10;;;1.53;;
5507;SDS011;2776;51.046;6.772;2024-01-16T07:06:50;4.20;;;1.23;;
5507;SDS011;2776;51.046;6.772;2024-01-16T07:09:17;1.50;;;1.10;;
5507;SDS011;2776;51.046;6.772;2024-01-16T07:11:45;1.80;;;0.97;;
5507;SDS011;2776;51.046;6.772;2024-01-16T07:14:12;3.47;;;1.43;;
5507;SDS011;2776;51.046;6.772;2024-01-16T07:16:40;2.33;;;1.00;;
5507;SDS011;2776;51.046;6.772;2024-01-16T07:19:08;1.60;;;1.33;;
5507;SDS011;2776;51.046;6.772;2024-01-16T07:21:34;3.13;;;2.10;;
5507;SDS011;2776;51.046;6.772;2024-01-16T07:24:01;1.03;;;0.90;;
5507;SDS011;2776;51.046;6.772;2024-01-16T07:26:28;1.50;;;0.77;;
5507;SDS011;2776;51.046;6.772;2024-01-16T07:28:55;1.17;;;0.97;;
5507;SDS011;2776;51.046;6.772;2024-01-16T07:31:22;0.90;;;0.87;;
5507;SDS011;2776;51.046;6.772;2024-01-16T07:33:51;1.43;;;1.33;;
5507;SDS011;2776;51.046;6.772;2024-01-16T07:36:17;7.40;;;1.97;;
5507;SDS011;2776;51.046;6.772;2024-01-16T07:38:44;7.03;;;1.10;;
5507;SDS011;2776;51.046;6.772;2024-01-16T07:41:11;4.97;;;1.53;;
5507;SDS011;2776;51.046;6.772;2024-01-16T07:43:37;4.27;;;1.20;;
5507;SDS011;2776;51.046;6.772;2024-01-16T07:46:04;0.87;;;0.87;;
5507;SDS011;2776;51.046;6.772;2024-01-16T07:48:31;7.67;;;1.97;;
5507;SDS011;2776;51.046;6.772;2024-01-16T07:50:59;5.00;;;1.83;;
5507;SDS011;2776;51.046;6.772;2024-01-16T07:53:26;14.07;;;2.17;;
5507;SDS011;2776;51.046;6.772;2024-01-16T07:55:53;5.87;;;1.33;;
5507;SDS011;2776;51.046;6.772;2024-01-16T07:58:20;2.37;;;1.27;;
5507;SDS011;2776;51.046;6.772;2024-01-16T08:00:47;1.50;;;1.33;;
5507;SDS011;2776;51.046;6.772;2024-01-16T08:03:14;1.63;;;1.33;;
5507;SDS011;2776;51.046;6.772;2024-01-16T08:05:40;1.10;;;0.87;;
5507;SDS011;2776;51.046;6.772;2024-01-16T08:08:09;1.73;;;1.30;;
5507;SDS011;2776;51.046;6.772;2024-01-16T08:10:36;6.70;;;1.57;;
5507;SDS011;2776;51.046;6.772;2024-01-16T08:13:03;2.10;;;1.57;;
5507;SDS011;2776;51.046;6.772;2024-01-16T08:15:30;1.97;;;1.20;;
5507;SDS011;2776;51.046;6.772;2024-01-16T08:17:57;2.30;;;1.43;;
5507;SDS011;2776;51.046;6.772;2024-01-16T08:20:23;1.83;;;1.30;;
5507;SDS011;2776;51.046;6.772;2024-01-16T08:22:50;0.40;;;0.40;;
5507;SDS011;2776;51.046;6.772;2024-01-16T08:25:18;3.60;;;1.90;;
5507;SDS011;2776;51.046;6.772;2024-01-16T08:27:45;1.47;;;1.00;;
5507;SDS011;2776;51.046;6.772;2024-01-16T08:30:12;2.77;;;1.23;;
5507;SDS011;2776;51.046;6.772;2024-01-16T08:32:39;1.93;;;1.83;;
5507;SDS011;2776;51.046;6.772;2024-01-16T08:35:06;1.13;;;1.03;;
5507;SDS011;2776;51.046;6.772;2024-01-16T08:37:33;7.20;;;1.20;;
5507;SDS011;2776;51.046;6.772;2024-01-16T08:40:00;3.00;;;1.07;;
5507;SDS011;2776;51.046;6.772;2024-01-16T08:42:29;2.67;;;0.77;;
5507;SDS011;2776;51.046;6.772;2024-01-16T08:44:56;3.67;;;1.00;;
5507;SDS011;2776;51.046;6.772;2024-01-16T08:47:23;1.53;;;1.33;;
5507;SDS011;2776;51.046;6.772;2024-01-16T08:49:50;1.07;;;1.07;;
5507;SDS011;2776;51.046;6.772;2024-01-16T08:52:17;0.97;;;0.87;;
5507;SDS011;2776;51.046;6.772;2024-01-16T08:54:44;1.97;;;1.30;;
5507;SDS011;2776;51.046;6.772;2024-01-16T08:57:10;2.87;;;1.00;;
5507;SDS011;2776;51.046;6.772;2024-01-16T08:59:39;3.33;;;1.20;;
5507;SDS011;2776;51.046;6.772;2024-01-16T09:02:06;2.87;;;1.20;;
5507;SDS011;2776;51.046;6.772;2024-01-16T09:04:33;2.17;;;1.00;;
5507;SDS011;2776;51.046;6.772;2024-01-16T09:07:00;0.60;;;0.60;;
5507;SDS011;2776;51.046;6.772;2024-01-16T09:09:29;1.33;;;1.00;;
5507;SDS011;2776;51.046;6.772;2024-01-16T09:11:56;0.87;;;0.83;;
5507;SDS011;2776;51.046;6.772;2024-01-16T09:14:23;4.83;;;1.50;;
5507;SDS011;2776;51.046;6.772;2024-01-16T09:16:51;0.73;;;0.73;;
5507;SDS011;2776;51.046;6.772;2024-01-16T09:19:19;1.27;;;1.10;;
5507;SDS011;2776;51.046;6.772;2024-01-16T09:21:45;3.43;;;1.47;;
5507;SDS011;2776;51.046;6.772;2024-01-16T09:24:15;1.73;;;1.30;;
5507;SDS011;2776;51.046;6.772;2024-01-16T09:26:43;1.90;;;1.80;;
5507;SDS011;2776;51.046;6.772;2024-01-16T09:29:10;7.33;;;1.70;;
5507;SDS011;2776;51.046;6.772;2024-01-16T09:31:37;2.03;;;1.13;;
5507;SDS011;2776;51.046;6.772;2024-01-16T09:34:05;2.07;;;0.80;;
5507;SDS011;2776;51.046;6.772;2024-01-16T09:36:31;1.17;;;1.07;;
5507;SDS011;2776;51.046;6.772;2024-01-16T09:39:00;6.73;;;1.57;;
5507;SDS011;2776;51.046;6.772;2024-01-16T09:41:27;1.97;;;1.43;;
5507;SDS011;2776;51.046;6.772;2024-01-16T09:43:57;5.10;;;1.43;;
5507;SDS011;2776;51.046;6.772;2024-01-16T09:46:24;2.13;;;1.80;;
5507;SDS011;2776;51.046;6.772;2024-01-16T09:48:52;1.80;;;1.10;;
5507;SDS011;2776;51.046;6.772;2024-01-16T09:51:22;5.87;;;2.37;;
5507;SDS011;2776;51.046;6.772;2024-01-16T09:53:49;1.83;;;1.30;;
5507;SDS011;2776;51.046;6.772;2024-01-16T09:56:16;3.70;;;1.40;;
5507;SDS011;2776;51.046;6.772;2024-01-16T09:58:47;2.87;;;1.07;;
5507;SDS011;2776;51.046;6.772;2024-01-16T10:01:15;4.03;;;1.10;;
5507;SDS011;2776;51.046;6.772;2024-01-16T10:03:43;1.40;;;1.07;;
5507;SDS011;2776;51.046;6.772;2024-01-16T10:06:11;2.23;;;1.10;;
5507;SDS011;2776;51.046;6.772;2024-01-16T10:08:41;2.43;;;1.83;;
5507;SDS011;2776;51.046;6.772;2024-01-16T10:11:07;1.80;;;1.23;;
5507;SDS011;2776;51.046;6.772;2024-01-16T10:13:34;7.73;;;1.30;;
5507;SDS011;2776;51.046;6.772;2024-01-16T10:16:02;3.03;;;1.43;;
5507;SDS011;2776;51.046;6.772;2024-01-16T10:18:29;1.73;;;1.30;;
5507;SDS011;2776;51.046;6.772;2024-01-16T10:20:57;3.03;;;1.77;;
5507;SDS011;2776;51.046;6.772;2024-01-16T10:23:24;4.97;;;1.00;;
5507;SDS011;2776;51.046;6.772;2024-01-16T10:28:34;1.70;;;1.23;;
5507;SDS011;2776;51.046;6.772;2024-01-16T10:31:02;0.97;;;0.90;;
5507;SDS011;2776;51.046;6.772;2024-01-16T10:33:29;1.30;;;1.07;;
5507;SDS011;2776;51.046;6.772;2024-01-16T10:38:43;1.23;;;1.17;;
5507;SDS011;2776;51.046;6.772;2024-01-16T10:41:13;1.57;;;0.83;;
5507;SDS011;2776;51.046;6.772;2024-01-16T10:43:40;2.07;;;1.30;;
5507;SDS011;2776;51.046;6.772;2024-01-16T10:46:09;2.67;;;1.20;;
5507;SDS011;2776;51.046;6.772;2024-01-16T10:48:39;2.37;;;1.30;;
5507;SDS011;2776;51.046;6.772;2024-01-16T10:51:08;3.63;;;1.80;;
5507;SDS011;2776;51.046;6.772;2024-01-16T10:53:37;2.47;;;1.17;;
5507;SDS011;2776;51.046;6.772;2024-01-16T10:56:09;1.90;;;1.53;;
5507;SDS011;2776;51.046;6.772;2024-01-16T10:58:39;4.83;;;1.87;;
5507;SDS011;2776;51.046;6.772;2024-01-16T11:01:09;0.83;;;0.80;;
5507;SDS011;2776;51.046;6.772;2024-01-16T11:03:38;2.53;;;0.90;;
5507;SDS011;2776;51.046;6.772;2024-01-16T11:06:09;1.93;;;1.20;;
5507;SDS011;2776;51.046;6.772;2024-01-16T11:08:36;1.07;;;1.00;;
5507;SDS011;2776;51.046;6.772;2024-01-16T11:11:04;3.20;;;1.47;;
5507;SDS011;2776;51.046;6.772;2024-01-16T11:13:31;1.30;;;1.20;;
5507;SDS011;2776;51.046;6.772;2024-01-16T11:16:01;4.53;;;1.20;;
5507;SDS011;2776;51.046;6.772;2024-01-16T11:18:29;2.83;;;1.70;;
5507;SDS011;2776;51.046;6.772;2024-01-16T11:20:57;0.80;;;0.80;;
5507;SDS011;2776;51.046;6.772;2024-01-16T11:23:24;2.07;;;1.10;;
5507;SDS011;2776;51.046;6.772;2024-01-16T11:25:52;1.80;;;1.07;;
5507;SDS011;2776;51.046;6.772;2024-01-16T11:28:19;1.87;;;1.23;;
5507;SDS011;2776;51.046;6.772;2024-01-16T11:30:46;1.17;;;0.93;;
5507;SDS011;2776;51.046;6.772;2024-01-16T11:39:09;4.20;;;1.70;;
5507;SDS011;2776;51.046;6.772;2024-01-16T11:41:52;5.70;;;1.80;;
5507;SDS011;2776;51.046;6.772;2024-01-16T11:47:08;4.93;;;1.73;;
5507;SDS011;2776;51.046;6.772;2024-01-16T11:49:36;1.40;;;1.30;;
5507;SDS011;2776;51.046;6.772;2024-01-16T11:52:03;1.43;;;1.03;;
5507;SDS011;2776;51.046;6.772;2024-01-16T11:54:30;2.67;;;1.73;;
5507;SDS011;2776;51.046;6.772;2024-01-16T11:59:56;3.10;;;1.43;;
5507;SDS011;2776;51.046;6.772;2024-01-16T12:02:26;1.40;;;0.97;;
5507;SDS011;2776;51.046;6.772;2024-01-16T12:05:14;3.10;;;1.13;;
5507;SDS011;2776;51.046;6.772;2024-01-16T12:07:47;3.40;;;1.37;;
5507;SDS011;2776;51.046;6.772;2024-01-16T12:10:18;1.13;;;1.07;;
5507;SDS011;2776;51.046;6.772;2024-01-16T12:12:46;1.80;;;1.70;;
5507;SDS011;2776;51.046;6.772;2024-01-16T12:15:15;2.97;;;1.70;;
5507;SDS011;2776;51.046;6.772;2024-01-16T12:17:55;4.37;;;1.70;;
5507;SDS011;2776;51.046;6.772;2024-01-16T12:20:25;0.87;;;0.87;;
5507;SDS011;2776;51.046;6.772;2024-01-16T12:22:56;4.43;;;1.73;;
5507;SDS011;2776;51.046;6.772;2024-01-16T12:25:23;2.47;;;1.63;;
5507;SDS011;2776;51.046;6.772;2024-01-16T12:27:56;1.23;;;1.13;;
5507;SDS011;2776;51.046;6.772;2024-01-16T12:30:24;5.93;;;1.33;;
5507;SDS011;2776;51.046;6.772;2024-01-16T12:32:53;5.00;;;1.60;;
5507;SDS011;2776;51.046;6.772;2024-01-16T12:35:30;1.63;;;1.27;;
5507;SDS011;2776;51.046;6.772;2024-01-16T12:37:58;7.07;;;1.57;;
5507;SDS011;2776;51.046;6.772;2024-01-16T12:40:25;1.83;;;1.30;;
5507;SDS011;2776;51.046;6.772;2024-01-16T12:42:52;1.33;;;1.23;;
5507;SDS011;2776;51.046;6.772;2024-01-16T12:45:19;3.13;;;1.73;;
5507;SDS011;2776;51.046;6.772;2024-01-16T12:47:50;3.73;;;1.67;;
5507;SDS011;2776;51.046;6.772;2024-01-16T12:50:21;1.30;;;0.80;;
5507;SDS011;2776;51.046;6.772;2024-01-16T12:52:50;6.67;;;2.00;;
5507;SDS011;2776;51.046;6.772;2024-01-16T12:55:26;5.93;;;1.57;;
5507;SDS011;2776;51.046;6.772;2024-01-16T13:00:38;1.87;;;1.40;;
5507;SDS011;2776;51.046;6.772;2024-01-16T13:03:05;3.07;;;1.40;;
5507;SDS011;2776;51.046;6.772;2024-01-16T13:05:32;4.93;;;1.43;;
5507;SDS011;2776;51.046;6.772;2024-01-16T13:08:00;1.10;;;0.97;;
5507;SDS011;2776;51.046;6.772;2024-01-16T13:10:28;4.80;;;1.83;;
5507;SDS011;2776;51.046;6.772;2024-01-16T13:13:10;2.77;;;1.70;;
5507;SDS011;2776;51.046;6.772;2024-01-16T13:15:38;2.30;;;1.47;;
5507;SDS011;2776;51.046;6.772;2024-01-16T13:18:05;3.13;;;1.40;;
5507;SDS011;2776;51.046;6.772;2024-01-16T13:20:32;1.43;;;1.33;;
5507;SDS011;2776;51.046;6.772;2024-01-16T13:23:00;2.53;;;1.20;;
5507;SDS011;2776;51.046;6.772;2024-01-16T13:25:28;3.23;;;1.43;;
5507;SDS011;2776;51.046;6.772;2024-01-16T13:27:54;1.93;;;1.37;;
5507;SDS011;2776;51.046;6.772;2024-01-16T13:30:21;3.27;;;1.70;;
5507;SDS011;2776;51.046;6.772;2024-01-16T13:32:49;5.40;;;1.30;;
5507;SDS011;2776;51.046;6.772;2024-01-16T13:35:15;2.60;;;1.37;;
5507;SDS011;2776;51.046;6.772;2024-01-16T13:37:42;1.63;;;1.20;;
5507;SDS011;2776;51.046;6.772;2024-01-16T13:40:10;4.43;;;1.57;;
5507;SDS011;2776;51.046;6.772;2024-01-16T13:42:40;1.80;;;1.13;;
5507;SDS011;2776;51.046;6.772;2024-01-16T13:45:07;4.07;;;1.87;;
5507;SDS011;2776;51.046;6.772;2024-01-16T13:47:35;6.87;;;1.83;;
5507;SDS011;2776;51.046;6.772;2024-01-16T13:50:04;1.17;;;0.90;;
5507;SDS011;2776;51.046;6.772;2024-01-16T13:52:31;3.20;;;1.33;;
5507;SDS011;2776;51.046;6.772;2024-01-16T13:54:58;6.63;;;1.40;;
5507;SDS011;2776;51.046;6.772;2024-01-16T13:57:30;2.00;;;1.27;;
5507;SDS011;2776;51.046;6.772;2024-01-16T13:59:57;2.27;;;2.00;;
5507;SDS011;2776;51.046;6.772;2024-01-16T14:02:24;3.57;;;1.03;;
5507;SDS011;2776;51.046;6.772;2024-01-16T14:04:51;1.33;;;1.10;;
5507;SDS011;2776;51.046;6.772;2024-01-16T14:07:17;2.13;;;1.47;;
5507;SDS011;2776;51.046;6.772;2024-01-16T14:09:44;1.63;;;1.23;;
5507;SDS011;2776;51.046;6.772;2024-01-16T14:12:11;2.63;;;1.33;;
5507;SDS011;2776;51.046;6.772;2024-01-16T14:14:39;1.40;;;1.30;;
5507;SDS011;2776;51.046;6.772;2024-01-16T14:17:07;1.73;;;1.17;;
5507;SDS011;2776;51.046;6.772;2024-01-16T14:19:34;1.73;;;1.47;;
5507;SDS011;2776;51.046;6.772;2024-01-16T14:22:01;4.37;;;0.93;;
5507;SDS011;2776;51.046;6.772;2024-01-16T14:24:28;2.03;;;1.37;;
5507;SDS011;2776;51.046;6.772;2024-01-16T14:26:55;1.80;;;1.10;;
5507;SDS011;2776;51.046;6.772;2024-01-16T14:29:22;1.23;;;1.10;;
5507;SDS011;2776;51.046;6.772;2024-01-16T14:31:50;1.40;;;1.30;;
5507;SDS011;2776;51.046;6.772;2024-01-16T14:34:17;1.27;;;1.17;;
5507;SDS011;2776;51.046;6.772;2024-01-16T14:36:44;2.77;;;1.57;;
5507;SDS011;2776;51.046;6.772;2024-01-16T14:39:11;1.30;;;1.20;;
5507;SDS011;2776;51.046;6.772;2024-01-16T14:41:42;4.57;;;2.10;;
5507;SDS011;2776;51.046;6.772;2024-01-16T14:44:09;4.43;;;1.70;;
5507;SDS011;2776;51.046;6.772;2024-01-16T14:46:36;2.43;;;1.67;;
5507;SDS011;2776;51.046;6.772;2024-01-16T14:49:04;2.00;;;0.93;;
5507;SDS011;2776;51.046;6.772;2024-01-16T14:51:31;0.90;;;0.90;;
5507;SDS011;2776;51.046;6.772;2024-01-16T14:53:57;3.27;;;1.73;;
5507;SDS011;2776;51.046;6.772;2024-01-16T14:56:26;2.03;;;1.50;;
5507;SDS011;2776;51.046;6.772;2024-01-16T14:58:53;4.03;;;1.40;;
5507;SDS011;2776;51.046;6.772;2024-01-16T15:01:20;3.60;;;1.00;;
5507;SDS011;2776;51.046;6.772;2024-01-16T15:03:46;1.33;;;1.23;;
5507;SDS011;2776;51.046;6.772;2024-01-16T15:06:15;7.93;;;1.60;;
5507;SDS011;2776;51.046;6.772;2024-01-16T15:08:42;3.60;;;1.97;;
5507;SDS011;2776;51.046;6.772;2024-01-16T15:11:09;4.57;;;1.30;;
5507;SDS011;2776;51.046;6.772;2024-01-16T15:13:36;2.20;;;1.13;;
5507;SDS011;2776;51.046;6.772;2024-01-16T15:16:03;6.73;;;1.30;;
5507;SDS011;2776;51.046;6.772;2024-01-16T15:18:30;1.37;;;1.20;;
5507;SDS011;2776;51.046;6.772;2024-01-16T15:20:57;5.07;;;2.10;;
5507;SDS011;2776;51.046;6.772;2024-01-16T15:23:25;2.60;;;1.40;;
5507;SDS011;2776;51.046;6.772;2024-01-16T15:25:52;1.83;;;1.40;;
5507;SDS011;2776;51.046;6.772;2024-01-16T15:28:20;7.07;;;1.67;;
5507;SDS011;2776;51.046;6.772;2024-01-16T15:30:46;1.70;;;1.60;;
5507;SDS011;2776;51.046;6.772;2024-01-16T15:33:13;7.57;;;1.90;;
5507;SDS011;2776;51.046;6.772;2024-01-16T15:35:40;6.43;;;1.63;;
5507;SDS011;2776;51.046;6.772;2024-01-16T15:38:06;5.17;;;2.33;;